Time;durP1;ratioP1;P1;durP2;ratioP2;P2;SDS_P1;SDS_P2;PMS_P1;PMS_P2;Temp;Humidity;BMP_temperature;BMP_pressure;BME280_temperature;BME280_humidity;BME280_pressure;Samples;Min_cycle;Max_cycle;Signal;HPM_P1;HPM_P2
2022/10/21 00:08:01;;;;;;;10.5;16.5;;;;;;;0.7;87.2;99410;;;;
2022/10/21 00:18:01;;;;;;;10.8;19.9;;;;;;;0.7;87.3;99390;;;;
2022/10/21 00:28:01;;;;;;;10.8;19.9;;;;;;;0.7;87.8;99370;;;;
2022/10/21 00:39:01;;;;;;;10.8;19.9;;;;;;;0.6;88;99350;;;;
2022/10/21 00:50:01;;;;;;;12.9;19.3;;;;;;;0.6;88.1;99320;;;;
2022/10/21 01:00:01;;;;;;;12.9;19.3;;;;;;;0.6;88.2;99330;;;;
2022/10/21 01:10:01;;;;;;;12.9;19.3;;;;;;;0.6;88.1;99310;;;;
2022/10/21 01:20:01;;;;;;;10.7;15.9;;;;;;;0.6;87.9;99310;;;;
2022/10/21 01:31:01;;;;;;;10.7;15.9;;;;;;;0.4;87.8;99320;;;;
2022/10/21 01:41:01;;;;;;;10.7;15.9;;;;;;;0.5;87.8;99320;;;;
2022/10/21 01:52:01;;;;;;;10.2;17.2;;;;;;;0.4;87.8;99320;;;;
2022/10/21 02:03:01;;;;;;;10.2;17.2;;;;;;;0.4;88;99300;;;;
2022/10/21 02:13:01;;;;;;;10.2;17.2;;;;;;;0.4;87.9;99310;;;;
2022/10/21 02:24:01;;;;;;;9.8;18;;;;;;;0.3;87.6;99300;;;;
2022/10/21 02:35:01;;;;;;;9.8;18;;;;;;;0.2;88.1;99290;;;;
2022/10/21 02:45:01;;;;;;;9.8;18;;;;;;;0.2;88.5;99270;;;;
2022/10/21 02:56:01;;;;;;;12.9;20.7;;;;;;;0.2;88.7;99260;;;;
2022/10/21 03:07:01;;;;;;;12.9;20.7;;;;;;;0.2;88.6;99250;;;;
2022/10/21 03:18:01;;;;;;;11.9;20.8;;;;;;;0.1;88.2;99260;;;;
2022/10/21 03:29:01;;;;;;;11.9;20.8;;;;;;;0;87.9;99230;;;;
2022/10/21 03:40:01;;;;;;;11.9;20.8;;;;;;;-0.1;87.7;99240;;;;
2022/10/21 03:50:01;;;;;;;10.6;20.2;;;;;;;-0.3;87.6;99240;;;;
2022/10/21 04:00:01;;;;;;;10.6;20.2;;;;;;;-0.4;87.6;99230;;;;
2022/10/21 04:10:01;;;;;;;10.6;20.2;;;;;;;-0.5;87.7;99210;;;;
2022/10/21 04:21:01;;;;;;;11.4;18.4;;;;;;;-0.5;87.7;99180;;;;
2022/10/21 04:31:01;;;;;;;11.4;18.4;;;;;;;-0.6;87.9;99170;;;;
2022/10/21 04:42:01;;;;;;;11.4;18.4;;;;;;;-0.6;88.1;99170;;;;
2022/10/21 04:52:01;;;;;;;9.3;15.3;;;;;;;-0.6;88.1;99180;;;;
2022/10/21 05:02:01;;;;;;;9.3;15.3;;;;;;;-0.6;88;99170;;;;
2022/10/21 05:13:01;;;;;;;9.3;15.3;;;;;;;-0.6;88;99160;;;;
2022/10/21 05:23:01;;;;;;;12;19.5;;;;;;;-0.5;88;99170;;;;
2022/10/21 05:34:01;;;;;;;12;19.5;;;;;;;-0.5;87.9;99180;;;;
2022/10/21 05:45:01;;;;;;;12;19.5;;;;;;;-0.3;88.1;99180;;;;
2022/10/21 05:55:01;;;;;;;9.8;18;;;;;;;0.1;88.5;99200;;;;
2022/10/21 06:06:01;;;;;;;9.8;18;;;;;;;0.6;89;99180;;;;
2022/10/21 06:16:01;;;;;;;11.1;19.1;;;;;;;1.1;89.3;99150;;;;
2022/10/21 06:26:01;;;;;;;11.1;19.1;;;;;;;1.7;89.8;99190;;;;
2022/10/21 06:36:01;;;;;;;11.1;19.1;;;;;;;2;89.3;99230;;;;
2022/10/21 06:47:01;;;;;;;13.9;22.6;;;;;;;2.4;89.1;99200;;;;
2022/10/21 06:58:01;;;;;;;13.9;22.6;;;;;;;2.9;88.9;99200;;;;
2022/10/21 07:09:01;;;;;;;13.9;22.6;;;;;;;3.3;87.9;99210;;;;
2022/10/21 07:20:01;;;;;;;15.4;23.9;;;;;;;3.5;86.9;99210;;;;
2022/10/21 07:31:01;;;;;;;15.4;23.9;;;;;;;3.5;85.8;99210;;;;
2022/10/21 07:42:01;;;;;;;15.4;23.9;;;;;;;4;85.8;99200;;;;
2022/10/21 07:53:01;;;;;;;15.8;24;;;;;;;4;86.2;99170;;;;
2022/10/21 08:03:01;;;;;;;15.8;24;;;;;;;4.6;87.1;99140;;;;
2022/10/21 08:13:01;;;;;;;15.8;24;;;;;;;5.5;87;99130;;;;
2022/10/21 08:23:01;;;;;;;18.7;26;;;;;;;6.5;85.7;99120;;;;
2022/10/21 08:33:01;;;;;;;18.7;26;;;;;;;7.3;82.8;99110;;;;
2022/10/21 08:43:01;;;;;;;18.7;26;;;;;;;7.7;79.8;99100;;;;
2022/10/21 08:54:01;;;;;;;22.1;26;;;;;;;8.4;78.9;99090;;;;
2022/10/21 09:05:01;;;;;;;22.1;26;;;;;;;9;75.9;99070;;;;
2022/10/21 09:16:01;;;;;;;21.8;27.6;;;;;;;9.5;74.6;99060;;;;
2022/10/21 09:26:01;;;;;;;21.8;27.6;;;;;;;10.3;74.4;99050;;;;
2022/10/21 09:37:01;;;;;;;21.8;27.6;;;;;;;10.4;71.3;99030;;;;
2022/10/21 09:47:01;;;;;;;22.6;26.3;;;;;;;10.7;72.3;99030;;;;
2022/10/21 09:57:01;;;;;;;22.6;26.3;;;;;;;10.8;72.8;99000;;;;
2022/10/21 10:07:01;;;;;;;22.6;26.3;;;;;;;11.6;71.8;98980;;;;
2022/10/21 10:17:02;;;;;;;20;27;;;;;;;12.1;70.8;98960;;;;
2022/10/21 10:28:01;;;;;;;20;27;;;;;;;12.8;69.2;98940;;;;
2022/10/21 10:38:01;;;;;;;20;27;;;;;;;12.8;68.9;98920;;;;
2022/10/21 10:48:02;;;;;;;20;24;;;;;;;12.9;69.2;98900;;;;
2022/10/21 10:58:01;;;;;;;20;24;;;;;;;13.1;69.1;98890;;;;
2022/10/21 11:08:01;;;;;;;20;24;;;;;;;12.8;67.4;98880;;;;
2022/10/21 11:18:01;;;;;;;18.9;24.6;;;;;;;12.4;67.5;98860;;;;
2022/10/21 11:29:01;;;;;;;18.9;24.6;;;;;;;12.4;67.5;98840;;;;
2022/10/21 11:39:01;;;;;;;18.9;24.6;;;;;;;12.7;68.8;98810;;;;
2022/10/21 11:50:01;;;;;;;19;23;;;;;;;13.1;68.8;98800;;;;
2022/10/21 12:01:01;;;;;;;19;23;;;;;;;13.4;67.3;98800;;;;
2022/10/21 12:12:01;;;;;;;19;23;;;;;;;13.3;67.9;98770;;;;
2022/10/21 12:23:01;;;;;;;19.5;24.5;;;;;;;13.3;68;98760;;;;
2022/10/21 12:34:01;;;;;;;19.5;24.5;;;;;;;13.5;67.4;98750;;;;
2022/10/21 12:45:00;;;;;;;18;24.1;;;;;;;13.7;67.1;98740;;;;
2022/10/21 12:55:01;;;;;;;18;24.1;;;;;;;13.6;66.6;98730;;;;
2022/10/21 13:06:01;;;;;;;18;24.1;;;;;;;13.7;67.2;98720;;;;
2022/10/21 13:16:01;;;;;;;17.6;21.4;;;;;;;14.3;65.9;98720;;;;
2022/10/21 13:27:01;;;;;;;17.6;21.4;;;;;;;14.6;65.2;98730;;;;
2022/10/21 13:38:01;;;;;;;17.6;21.4;;;;;;;14.4;66;98700;;;;
2022/10/21 13:48:00;;;;;;;14.3;20.5;;;;;;;14.5;65.2;98700;;;;
2022/10/21 13:59:00;;;;;;;14.3;20.5;;;;;;;14.5;65.7;98700;;;;
2022/10/21 14:09:02;;;;;;;14.3;20.5;;;;;;;14.4;66;98700;;;;
2022/10/21 14:20:00;;;;;;;13.8;18;;;;;;;14.2;66.3;98700;;;;
2022/10/21 14:31:01;;;;;;;13.8;18;;;;;;;14;66.5;98710;;;;
2022/10/21 14:41:00;;;;;;;13.8;18;;;;;;;13.7;67.7;98710;;;;
2022/10/21 14:51:00;;;;;;;13.2;19.6;;;;;;;13.4;68.5;98710;;;;
2022/10/21 15:01:00;;;;;;;13.2;19.6;;;;;;;13.2;69.1;98690;;;;
2022/10/21 15:12:01;;;;;;;13.2;19.6;;;;;;;12.7;71.3;98720;;;;
2022/10/21 15:22:00;;;;;;;13.4;18.9;;;;;;;12.5;71.6;98730;;;;
2022/10/21 15:32:00;;;;;;;13.4;18.9;;;;;;;12.2;72.5;98730;;;;
2022/10/21 15:42:00;;;;;;;13.4;18.9;;;;;;;11.9;73.1;98740;;;;
2022/10/21 15:53:00;;;;;;;14.6;18.7;;;;;;;11.7;74;98750;;;;
2022/10/21 16:04:01;;;;;;;14.6;18.7;;;;;;;11.5;75.1;98760;;;;
2022/10/21 16:14:00;;;;;;;14.6;18.7;;;;;;;11.4;75.6;98760;;;;
2022/10/21 16:24:00;;;;;;;20;26;;;;;;;11.3;75.7;98770;;;;
2022/10/21 16:34:00;;;;;;;20;26;;;;;;;11.3;76.2;98770;;;;
2022/10/21 16:45:00;;;;;;;17.6;23.6;;;;;;;11.1;77.8;98770;;;;
2022/10/21 16:55:00;;;;;;;17.6;23.6;;;;;;;11.2;77.4;98780;;;;
2022/10/21 17:05:00;;;;;;;17.6;23.6;;;;;;;11.1;77.4;98790;;;;
2022/10/21 17:16:00;;;;;;;19.7;27.5;;;;;;;11;77.6;98800;;;;
2022/10/21 17:27:00;;;;;;;19.7;27.5;;;;;;;10.9;78.4;98800;;;;
2022/10/21 17:37:00;;;;;;;19.7;27.5;;;;;;;10.8;79;98800;;;;
2022/10/21 17:47:00;;;;;;;22.2;32.2;;;;;;;10.8;78.2;98800;;;;
2022/10/21 17:57:01;;;;;;;22.2;32.2;;;;;;;10.6;79.6;98800;;;;
2022/10/21 18:07:00;;;;;;;22.2;32.2;;;;;;;10.6;79.2;98790;;;;
2022/10/21 18:18:00;;;;;;;25.4;34.2;;;;;;;10.5;79.3;98790;;;;
2022/10/21 18:28:00;;;;;;;25.4;34.2;;;;;;;10.3;80.1;98770;;;;
2022/10/21 18:39:00;;;;;;;25.4;34.2;;;;;;;10.2;80.1;98770;;;;
2022/10/21 18:49:00;;;;;;;38.8;49.6;;;;;;;10.1;80.8;98770;;;;
2022/10/21 18:59:00;;;;;;;38.8;49.6;;;;;;;10.1;80.8;98760;;;;
2022/10/21 19:09:00;;;;;;;38.8;49.6;;;;;;;10;80.8;98760;;;;
2022/10/21 19:20:02;;;;;;;27.6;34.6;;;;;;;10.1;80.8;98750;;;;
2022/10/21 19:31:00;;;;;;;27.6;34.6;;;;;;;10.2;80.7;98750;;;;
2022/10/21 19:42:00;;;;;;;27.6;34.6;;;;;;;10.2;80.9;98740;;;;
2022/10/21 19:53:00;;;;;;;26.1;33.1;;;;;;;10.3;79.2;98720;;;;
2022/10/21 20:04:00;;;;;;;26.1;33.1;;;;;;;10.5;77.3;98710;;;;
2022/10/21 20:15:00;;;;;;;17.9;25.9;;;;;;;10.7;76;98670;;;;
2022/10/21 20:25:00;;;;;;;17.9;25.9;;;;;;;10.8;75.1;98640;;;;
2022/10/21 20:35:00;;;;;;;17.9;25.9;;;;;;;10.8;75.4;98630;;;;
2022/10/21 20:46:00;;;;;;;13.1;17.9;;;;;;;10.8;75.2;98630;;;;
2022/10/21 20:57:00;;;;;;;13.1;17.9;;;;;;;10.7;77.2;98650;;;;
2022/10/21 21:08:00;;;;;;;13.1;17.9;;;;;;;10.5;78.4;98640;;;;
2022/10/21 21:18:02;;;;;;;21.8;27.8;;;;;;;10.4;78.6;98660;;;;
2022/10/21 21:29:00;;;;;;;21.8;27.8;;;;;;;10.3;79.2;98670;;;;
2022/10/21 21:39:00;;;;;;;21.8;27.8;;;;;;;10.3;79.5;98670;;;;
2022/10/21 21:49:00;;;;;;;27.2;37.4;;;;;;;10.2;79.6;98670;;;;
2022/10/21 22:00:00;;;;;;;27.2;37.4;;;;;;;9.8;80.6;98650;;;;
2022/10/21 22:10:00;;;;;;;27.2;37.4;;;;;;;9.6;80.6;98650;;;;
2022/10/21 22:20:00;;;;;;;32;44.4;;;;;;;9.5;80.1;98660;;;;
2022/10/21 22:31:00;;;;;;;32;44.4;;;;;;;9.3;80.7;98680;;;;
2022/10/21 22:41:00;;;;;;;32;44.4;;;;;;;9.2;81.4;98690;;;;
2022/10/21 22:52:00;;;;;;;31.1;38.7;;;;;;;9.1;82.8;98670;;;;
2022/10/21 23:02:00;;;;;;;31.1;38.7;;;;;;;9.1;82.7;98680;;;;
2022/10/21 23:13:00;;;;;;;31.1;38.7;;;;;;;9;82.3;98660;;;;
2022/10/21 23:23:00;;;;;;;33.7;39.3;;;;;;;9;82;98680;;;;
2022/10/21 23:34:01;;;;;;;33.7;39.3;;;;;;;9;81.9;98670;;;;
2022/10/21 23:44:00;;;;;;;29.3;35.1;;;;;;;8.8;82.1;98660;;;;
2022/10/21 23:55:00;;;;;;;29.3;35.1;;;;;;;8.8;82.1;98680;;;;
